Time;durP1;ratioP1;P1;durP2;ratioP2;P2;SDS_P1;SDS_P2;PMS_P1;PMS_P2;Temp;Humidity;BMP_temperature;BMP_pressure;BME280_temperature;BME280_humidity;BME280_pressure;Samples;Min_cycle;Max_cycle;Signal;HPM_P1;HPM_P2
2023/04/21 00:00:08;;;;;;;3.95;3.38;;;;;;;19.83;56.68;100769.22;5056783;28;20045;-57
2023/04/21 00:02:38;;;;;;;4.57;3.53;;;;;;;19.83;56.57;100769.22;5056834;28;20053;-58
2023/04/21 00:05:09;;;;;;;4.93;3.30;;;;;;;19.82;56.52;100767.53;5056616;28;20049;-57
2023/04/21 00:07:37;;;;;;;5.25;3.50;;;;;;;19.83;56.65;100773.75;5056420;28;20049;-57
2023/04/21 00:10:09;;;;;;;6.28;4.70;;;;;;;19.82;56.60;100769.38;5056217;28;20064;-54
2023/04/21 00:12:37;;;;;;;4.80;3.65;;;;;;;19.82;56.58;100769.38;5056623;28;20056;-55
2023/04/21 00:15:05;;;;;;;5.32;3.80;;;;;;;19.82;56.47;100769.38;5056461;28;20071;-55
2023/04/21 00:17:32;;;;;;;5.07;3.30;;;;;;;19.82;56.47;100766.69;5056457;28;20048;-55
2023/04/21 00:20:00;;;;;;;6.03;4.00;;;;;;;19.82;56.58;100766.69;5056142;28;20036;-58
2023/04/21 00:22:27;;;;;;;8.55;3.45;;;;;;;19.80;56.46;100758.75;5055201;28;20049;-57
2023/04/21 00:24:54;;;;;;;4.75;3.30;;;;;;;19.81;56.45;100756.91;5055892;28;20056;-58
2023/04/21 00:27:21;;;;;;;4.07;3.40;;;;;;;19.80;56.53;100753.38;5054721;28;20487;-58
2023/04/21 00:29:49;;;;;;;6.72;3.92;;;;;;;19.81;56.47;100756.91;5056671;28;20049;-56
2023/04/21 00:32:16;;;;;;;6.70;3.63;;;;;;;19.81;56.65;100759.59;5038629;28;20053;-56
2023/04/21 00:34:44;;;;;;;3.83;3.28;;;;;;;19.81;56.67;100754.22;5055541;28;20052;-55
2023/04/21 00:37:11;;;;;;;4.80;3.30;;;;;;;19.81;56.72;100754.22;5055698;28;20048;-56
2023/04/21 00:39:39;;;;;;;7.55;4.35;;;;;;;19.82;56.59;100758.63;5054416;28;20410;-56
2023/04/21 00:42:06;;;;;;;5.40;3.67;;;;;;;19.81;56.49;100760.47;5054468;28;20079;-56
2023/04/21 00:44:35;;;;;;;6.32;3.17;;;;;;;19.80;56.55;100764.13;5055804;28;20058;-56
2023/04/21 00:47:03;;;;;;;5.22;3.92;;;;;;;19.79;56.54;100757.06;5054398;28;20053;-55
2023/04/21 00:49:31;;;;;;;4.85;4.05;;;;;;;19.81;56.69;100759.59;5054754;28;20072;-57
2023/04/21 00:51:59;;;;;;;4.65;3.67;;;;;;;19.79;56.54;100754.38;5054495;28;20124;-57
2023/04/21 00:54:27;;;;;;;4.47;3.25;;;;;;;19.79;56.65;100757.06;5054788;28;20052;-57
2023/04/21 00:56:57;;;;;;;5.47;3.53;;;;;;;19.79;56.50;100753.53;5055725;28;20402;-57
2023/04/21 00:59:27;;;;;;;5.93;3.38;;;;;;;19.79;56.44;100748.16;5054469;28;20064;-57
2023/04/21 01:01:56;;;;;;;6.15;3.30;;;;;;;19.79;56.43;100748.16;5054275;28;20053;-57
2023/04/21 01:04:23;;;;;;;4.65;3.25;;;;;;;19.79;56.54;100749.00;5053947;28;20049;-58
2023/04/21 01:06:51;;;;;;;4.75;3.25;;;;;;;19.80;56.54;100747.16;5055531;28;20491;-57
2023/04/21 01:09:19;;;;;;;4.72;3.33;;;;;;;19.79;56.64;100756.22;5054595;28;20407;-58
2023/04/21 01:12:03;;;;;;;4.28;3.42;;;;;;;19.79;56.62;100756.22;5055133;28;20399;-58
2023/04/21 01:14:35;;;;;;;4.53;3.33;;;;;;;19.80;56.47;100757.91;5053969;28;20053;-57
2023/04/21 01:17:04;;;;;;;5.07;3.03;;;;;;;19.80;56.66;100765.97;5054929;28;20419;-58
2023/04/21 01:19:39;;;;;;;3.50;2.92;;;;;;;19.79;56.69;100769.66;5055040;28;20049;-55
2023/04/21 01:22:11;;;;;;;4.00;3.20;;;;;;;19.79;56.65;100765.13;5037785;28;20056;-55
2023/04/21 01:24:43;;;;;;;3.63;2.72;;;;;;;19.79;56.76;100765.13;5055146;28;20402;-55
2023/04/21 01:27:12;;;;;;;6.38;3.42;;;;;;;19.80;56.80;100763.28;5054056;28;20053;-56
2023/04/21 01:29:41;;;;;;;5.78;3.92;;;;;;;19.79;56.67;100766.97;5055486;28;20391;-55
2023/04/21 01:32:12;;;;;;;4.75;3.35;;;;;;;19.78;56.71;100760.75;5053977;28;20053;-56
2023/04/21 01:34:41;;;;;;;4.35;3.33;;;;;;;19.78;56.81;100765.25;5055091;28;20045;-55
2023/04/21 01:37:15;;;;;;;4.65;3.33;;;;;;;19.79;56.70;100766.97;5055111;28;20475;-55
2023/04/21 01:39:46;;;;;;;5.45;3.03;;;;;;;19.78;56.69;100766.13;5054619;28;20049;-59
2023/04/21 01:42:13;;;;;;;4.70;3.42;;;;;;;19.78;56.65;100759.91;5054584;28;20049;-57
2023/04/21 01:44:41;;;;;;;5.05;3.50;;;;;;;19.77;56.57;100756.38;5054829;28;20494;-58
2023/04/21 01:47:10;;;;;;;4.00;2.80;;;;;;;19.77;56.77;100761.72;5053849;28;20053;-58
2023/04/21 01:49:39;;;;;;;4.07;2.55;;;;;;;19.77;56.71;100756.38;5053353;28;20051;-57
2023/04/21 01:52:06;;;;;;;5.03;2.72;;;;;;;19.77;56.82;100759.06;5054818;28;20490;-57
2023/04/21 01:54:34;;;;;;;4.20;2.78;;;;;;;19.78;56.68;100763.44;5053905;28;20495;-57
2023/04/21 01:57:02;;;;;;;4.03;2.55;;;;;;;19.79;56.85;100762.44;5053640;28;20060;-58
2023/04/21 01:59:29;;;;;;;4.55;2.80;;;;;;;19.78;56.65;100760.75;5052859;28;20045;-57
2023/04/21 02:01:57;;;;;;;3.90;2.80;;;;;;;19.79;56.63;100764.28;5054105;28;20127;-57
2023/04/21 02:04:24;;;;;;;3.92;2.85;;;;;;;19.78;56.75;100759.91;5054397;28;20051;-58
2023/04/21 02:06:52;;;;;;;4.13;2.92;;;;;;;19.78;56.87;100760.75;5053198;28;20060;-57
2023/04/21 02:09:19;;;;;;;3.95;3.00;;;;;;;19.77;56.71;100764.44;5054447;28;20045;-55
2023/04/21 02:11:47;;;;;;;3.45;2.60;;;;;;;19.78;56.77;100766.13;5053201;28;20052;-55
2023/04/21 02:14:15;;;;;;;3.92;2.75;;;;;;;19.79;56.92;100765.13;5054352;28;20057;-55
2023/04/21 02:16:45;;;;;;;5.07;3.13;;;;;;;19.78;56.78;100765.25;5052492;28;20391;-55
2023/04/21 02:19:12;;;;;;;6.00;2.88;;;;;;;19.78;56.76;100766.13;5053939;28;20082;-57
2023/04/21 02:21:39;;;;;;;5.28;3.05;;;;;;;19.78;56.90;100762.59;5054082;28;20053;-58
2023/04/21 02:24:07;;;;;;;4.20;3.00;;;;;;;19.79;56.69;100766.97;5054065;28;20048;-58
2023/04/21 02:26:34;;;;;;;5.45;3.13;;;;;;;19.78;56.67;100765.25;5054078;28;20501;-58
2023/04/21 02:29:02;;;;;;;4.13;3.05;;;;;;;19.76;56.71;100766.22;5053987;28;20049;-57
2023/04/21 02:31:29;;;;;;;7.40;2.85;;;;;;;19.76;56.60;100768.91;5053934;28;20049;-58
2023/04/21 02:33:57;;;;;;;6.68;3.35;;;;;;;19.76;56.68;100768.06;5053652;28;20051;-58
2023/04/21 02:36:25;;;;;;;4.10;2.67;;;;;;;19.76;56.76;100770.75;5052171;28;20059;-58
2023/04/21 02:38:56;;;;;;;5.00;3.05;;;;;;;19.76;56.56;100768.91;5052214;28;20410;-57
2023/04/21 02:41:24;;;;;;;3.25;2.78;;;;;;;19.75;56.62;100772.59;5053298;28;20053;-57
2023/04/21 02:43:51;;;;;;;3.88;2.85;;;;;;;19.75;56.78;100766.38;5053396;28;20056;-58
2023/04/21 02:46:21;;;;;;;5.18;3.13;;;;;;;19.75;56.67;100766.38;5052117;28;20049;-58
2023/04/21 02:48:48;;;;;;;3.38;2.70;;;;;;;19.74;56.83;100757.47;5052324;28;20502;-57
2023/04/21 02:51:19;;;;;;;4.78;2.67;;;;;;;19.75;56.66;100763.69;5052585;28;20053;-57
2023/04/21 02:53:46;;;;;;;5.13;3.55;;;;;;;19.74;56.69;100762.84;5052104;28;20056;-57
2023/04/21 02:56:13;;;;;;;4.18;3.10;;;;;;;19.74;56.73;100764.69;5053397;28;20387;-57
2023/04/21 02:58:41;;;;;;;3.97;2.83;;;;;;;19.74;56.61;100757.47;5052506;28;20064;-57
2023/04/21 03:01:08;;;;;;;4.30;2.90;;;;;;;19.75;56.64;100761.00;5053353;28;20048;-57
2023/04/21 03:03:36;;;;;;;4.43;3.10;;;;;;;19.74;56.64;100760.16;5053184;28;20119;-57
2023/04/21 03:06:04;;;;;;;4.57;2.78;;;;;;;19.73;56.64;100761.16;5053346;28;20230;-58
2023/04/21 03:08:31;;;;;;;4.93;2.70;;;;;;;19.73;56.63;100761.16;5051838;28;20049;-57
2023/04/21 03:10:59;;;;;;;4.28;2.90;;;;;;;19.73;56.45;100761.16;5053095;28;20060;-57
2023/04/21 03:13:27;;;;;;;3.78;2.78;;;;;;;19.73;56.70;100758.47;5052936;28;20048;-58
2023/04/21 03:15:54;;;;;;;3.65;2.58;;;;;;;19.74;56.73;100759.31;5051554;28;20056;-58
2023/04/21 03:18:22;;;;;;;3.63;2.65;;;;;;;19.73;56.55;100761.16;5053285;28;20049;-58
2023/04/21 03:20:50;;;;;;;3.50;2.50;;;;;;;19.73;56.66;100763.00;5053141;28;20044;-56
2023/04/21 03:23:17;;;;;;;3.88;2.70;;;;;;;19.73;56.64;100766.53;5053442;28;20052;-55
2023/04/21 03:25:45;;;;;;;4.18;3.05;;;;;;;19.73;56.51;100763.84;5052301;28;20063;-55
2023/04/21 03:28:12;;;;;;;3.65;2.67;;;;;;;19.73;56.79;100768.38;5054758;28;20053;-56
2023/04/21 03:30:40;;;;;;;6.00;2.78;;;;;;;19.72;56.55;100762.13;5057516;28;20037;-57
2023/04/21 03:33:07;;;;;;;3.47;2.60;;;;;;;19.73;56.62;100765.69;5057560;28;20049;-58
2023/04/21 03:35:34;;;;;;;4.55;2.58;;;;;;;19.73;56.72;100768.38;5056158;28;20056;-57
2023/04/21 03:38:02;;;;;;;3.88;2.70;;;;;;;19.73;56.60;100763.84;5055946;28;20053;-58
2023/04/21 03:40:30;;;;;;;3.80;2.42;;;;;;;19.72;56.69;100772.00;5055926;28;20486;-55
2023/04/21 03:42:58;;;;;;;3.85;2.80;;;;;;;19.72;56.54;100772.88;5039293;28;20053;-56
2023/04/21 03:45:25;;;;;;;4.03;2.90;;;;;;;19.71;56.68;100773.00;5057050;28;20053;-55
2023/04/21 03:47:54;;;;;;;4.20;3.10;;;;;;;19.72;56.72;100772.88;5057152;28;20403;-55
2023/04/21 03:50:22;;;;;;;3.97;2.38;;;;;;;19.72;56.71;100778.22;5056945;28;20053;-57
2023/04/21 03:52:49;;;;;;;3.47;2.72;;;;;;;19.72;56.68;100777.38;5056957;28;20049;-58
2023/04/21 03:55:17;;;;;;;3.92;2.78;;;;;;;19.71;56.51;100778.38;5057047;28;20348;-57
2023/04/21 03:57:44;;;;;;;3.85;2.75;;;;;;;19.72;56.55;100782.75;5056795;28;20514;-58
2023/04/21 04:00:12;;;;;;;4.10;2.55;;;;;;;19.71;56.46;100779.22;5056940;28;20041;-57
2023/04/21 04:02:39;;;;;;;4.38;2.97;;;;;;;19.71;56.62;100783.75;5057122;28;20052;-58
2023/04/21 04:05:07;;;;;;;3.55;2.53;;;;;;;19.71;56.57;100786.44;5055554;28;20056;-58
2023/04/21 04:07:35;;;;;;;3.45;2.78;;;;;;;19.70;56.64;100790.97;5056930;28;20067;-58
2023/04/21 04:10:03;;;;;;;4.10;2.85;;;;;;;19.71;56.53;100789.97;5056548;28;20048;-57
2023/04/21 04:12:30;;;;;;;3.28;2.35;;;;;;;19.72;56.50;100793.50;5056558;28;20044;-58
2023/04/21 04:14:57;;;;;;;4.47;3.20;;;;;;;19.70;56.68;100788.28;5056437;28;20049;-58
2023/04/21 04:17:25;;;;;;;3.90;2.63;;;;;;;19.70;56.45;100793.66;5056644;28;20075;-58
2023/04/21 04:19:52;;;;;;;3.88;2.80;;;;;;;19.70;56.47;100799.03;5056552;28;20093;-55
2023/04/21 04:22:19;;;;;;;3.92;2.58;;;;;;;19.70;56.67;100796.34;5056422;28;20049;-56
2023/04/21 04:24:47;;;;;;;4.47;2.60;;;;;;;19.71;56.65;100802.56;5056242;28;20052;-54
2023/04/21 04:27:15;;;;;;;5.10;2.58;;;;;;;19.73;56.67;100803.28;5056168;28;20049;-56
2023/04/21 04:29:42;;;;;;;3.05;2.20;;;;;;;19.73;56.76;100801.44;5056317;28;20493;-55
2023/04/21 04:32:10;;;;;;;4.15;3.10;;;;;;;19.73;56.72;100796.06;5055898;28;20049;-56
2023/04/21 04:34:37;;;;;;;5.15;2.90;;;;;;;19.73;56.53;100806.81;5056034;28;20072;-56
2023/04/21 04:37:05;;;;;;;5.22;2.35;;;;;;;19.73;56.65;100801.44;5056150;28;20513;-56
2023/04/21 04:39:32;;;;;;;3.35;2.50;;;;;;;19.73;56.65;100809.50;5055337;28;20060;-55
2023/04/21 04:42:00;;;;;;;4.55;2.65;;;;;;;19.73;56.76;100808.66;5054708;28;20060;-55
2023/04/21 04:44:27;;;;;;;6.35;3.10;;;;;;;19.72;56.68;100804.25;5056012;28;20045;-56
2023/04/21 04:46:55;;;;;;;3.30;2.60;;;;;;;19.71;56.68;100807.94;5056005;28;20040;-56
2023/04/21 04:49:22;;;;;;;3.90;2.58;;;;;;;19.72;56.60;100812.31;5055550;28;20049;-57
2023/04/21 04:51:50;;;;;;;4.18;2.88;;;;;;;19.70;56.58;100811.59;5055501;28;20041;-57
2023/04/21 04:54:17;;;;;;;3.33;2.45;;;;;;;19.70;56.59;100806.22;5054416;28;20498;-57
2023/04/21 04:56:45;;;;;;;3.72;2.60;;;;;;;19.69;56.64;100808.06;5054000;28;20063;-57
2023/04/21 04:59:12;;;;;;;4.43;2.90;;;;;;;19.70;56.57;100811.59;5055718;28;20060;-57
2023/04/21 05:01:40;;;;;;;4.97;3.10;;;;;;;19.70;56.49;100811.59;5055571;28;20044;-57
2023/04/21 05:04:08;;;;;;;2.90;2.30;;;;;;;19.70;56.82;100816.97;5055745;28;20045;-58
2023/04/21 05:06:36;;;;;;;3.80;2.60;;;;;;;19.70;56.71;100816.97;5055436;28;20515;-58
2023/04/21 05:09:03;;;;;;;3.00;2.38;;;;;;;19.69;56.49;100824.19;5055452;28;20352;-57
2023/04/21 05:11:31;;;;;;;5.32;2.90;;;;;;;19.70;56.59;100825.88;5055504;28;20049;-58
2023/04/21 05:13:58;;;;;;;6.10;2.58;;;;;;;19.70;56.85;100827.72;5055578;28;20040;-58
2023/04/21 05:16:25;;;;;;;3.83;2.67;;;;;;;19.69;56.76;100826.88;5055447;28;20402;-58
2023/04/21 05:18:53;;;;;;;5.07;3.00;;;;;;;19.70;56.82;100838.47;5055673;28;20049;-56
2023/04/21 05:21:27;;;;;;;4.15;3.00;;;;;;;19.69;56.81;100839.44;5055382;28;20045;-55
2023/04/21 05:23:55;;;;;;;4.88;3.10;;;;;;;19.68;56.67;100843.94;5055127;28;20379;-55
2023/04/21 05:26:23;;;;;;;4.90;3.00;;;;;;;19.69;56.70;100847.50;5055508;28;20040;-55
2023/04/21 05:28:51;;;;;;;3.85;2.85;;;;;;;19.69;56.57;100845.69;5055328;28;20479;-57
2023/04/21 05:31:18;;;;;;;4.82;2.78;;;;;;;19.68;56.78;100843.94;5055310;28;20041;-57
2023/04/21 05:33:45;;;;;;;4.00;2.92;;;;;;;19.68;56.75;100849.31;5055219;28;20056;-58
2023/04/21 05:36:12;;;;;;;4.78;3.55;;;;;;;19.68;56.55;100846.63;5055259;28;20041;-57
2023/04/21 05:38:40;;;;;;;3.67;2.60;;;;;;;19.68;56.68;100851.16;5054891;28;20045;-58
2023/04/21 05:41:07;;;;;;;5.47;3.25;;;;;;;19.68;56.72;100852.00;5053898;28;20048;-57
2023/04/21 05:43:34;;;;;;;4.82;2.90;;;;;;;19.68;56.76;100857.38;5054895;28;20056;-58
2023/04/21 05:46:07;;;;;;;3.45;3.00;;;;;;;19.69;56.86;100853.72;5054838;28;20056;-57
2023/04/21 05:48:35;;;;;;;4.35;2.45;;;;;;;19.69;56.94;100863.63;5054656;28;20055;-57
2023/04/21 05:51:12;;;;;;;3.97;3.08;;;;;;;19.69;56.91;100859.09;5053822;28;20045;-55
2023/04/21 05:53:41;;;;;;;6.60;2.80;;;;;;;19.69;56.92;100859.09;5054636;28;20055;-55
2023/04/21 05:56:09;;;;;;;3.80;3.05;;;;;;;19.69;56.77;100858.25;5054598;28;20045;-54
2023/04/21 05:58:37;;;;;;;5.00;2.85;;;;;;;19.68;56.75;100865.44;5054625;28;20471;-55
2023/04/21 06:01:05;;;;;;;3.70;2.88;;;;;;;19.69;56.89;100866.31;5054783;28;20037;-57
2023/04/21 06:03:32;;;;;;;5.25;3.20;;;;;;;19.68;56.83;100860.06;5054684;28;20467;-58
2023/04/21 06:06:02;;;;;;;4.30;2.78;;;;;;;19.68;56.76;100862.75;5053186;28;20068;-57
2023/04/21 06:08:30;;;;;;;5.05;3.20;;;;;;;19.68;56.80;100873.50;5054432;28;20060;-57
2023/04/21 06:10:57;;;;;;;5.15;3.20;;;;;;;19.67;56.70;100863.75;5054239;28;20064;-57
2023/04/21 06:13:26;;;;;;;5.50;2.95;;;;;;;19.66;56.71;100862.03;5054420;28;20430;-58
2023/04/21 06:15:54;;;;;;;4.13;3.00;;;;;;;19.67;56.85;100863.75;5054678;28;20052;-58
2023/04/21 06:18:22;;;;;;;4.45;2.88;;;;;;;19.67;56.87;100869.13;5054301;28;20040;-58
2023/04/21 06:20:50;;;;;;;4.53;2.80;;;;;;;19.67;56.88;100871.81;5054029;28;20044;-55
2023/04/21 06:23:18;;;;;;;5.22;2.95;;;;;;;19.66;56.89;100872.78;5054064;28;20048;-54
2023/04/21 06:25:46;;;;;;;6.75;3.58;;;;;;;19.67;56.84;100863.75;5054232;28;20041;-55
2023/04/21 06:28:13;;;;;;;6.00;3.38;;;;;;;19.67;57.05;100869.13;5054267;28;20048;-55
2023/04/21 06:30:40;;;;;;;3.95;3.15;;;;;;;19.67;57.08;100871.81;5054222;28;20074;-54
2023/04/21 06:33:08;;;;;;;4.93;2.92;;;;;;;19.67;57.03;100869.13;5054073;28;20071;-54
2023/04/21 06:35:35;;;;;;;4.55;2.85;;;;;;;19.67;57.12;100870.94;5053996;28;20045;-54
2023/04/21 06:38:03;;;;;;;8.68;3.30;;;;;;;19.67;57.06;100873.63;5054066;28;20045;-55
2023/04/21 06:40:30;;;;;;;3.80;2.85;;;;;;;19.67;56.97;100871.81;5053924;28;20067;-57
2023/04/21 06:42:57;;;;;;;4.80;2.78;;;;;;;19.68;57.04;100865.44;5053864;28;20048;-57
2023/04/21 06:45:24;;;;;;;5.07;3.40;;;;;;;19.68;56.96;100867.28;5052336;28;20049;-57
2023/04/21 06:47:52;;;;;;;7.18;3.40;;;;;;;19.67;56.97;100871.81;5053888;28;20052;-57
2023/04/21 06:50:19;;;;;;;5.97;3.10;;;;;;;19.68;56.83;100872.66;5053865;28;20045;-57
2023/04/21 06:52:46;;;;;;;7.28;3.67;;;;;;;19.67;57.07;100879.00;5053842;28;20033;-57
2023/04/21 06:55:13;;;;;;;3.67;2.50;;;;;;;19.67;57.18;100874.47;5052068;28;20049;-57
2023/04/21 06:57:41;;;;;;;4.75;2.72;;;;;;;19.67;56.94;100870.94;5053554;28;20045;-58
2023/04/21 07:00:09;;;;;;;4.63;3.53;;;;;;;19.67;57.03;100876.31;5053404;28;20052;-57
2023/04/21 07:02:36;;;;;;;3.55;2.67;;;;;;;19.67;56.87;100881.69;5052873;28;20037;-57
2023/04/21 07:05:04;;;;;;;5.97;3.38;;;;;;;19.66;56.87;100878.16;5053488;28;20060;-58
2023/04/21 07:07:32;;;;;;;5.70;3.45;;;;;;;19.67;57.01;100884.38;5053075;28;20052;-58
2023/04/21 07:09:59;;;;;;;5.82;3.50;;;;;;;19.66;56.79;100885.38;5053502;28;20541;-57
2023/04/21 07:12:27;;;;;;;3.90;2.80;;;;;;;19.65;56.96;100884.53;5053920;28;20044;-57
2023/04/21 07:14:55;;;;;;;4.60;3.17;;;;;;;19.67;57.05;100884.38;5053552;28;20044;-57
2023/04/21 07:17:22;;;;;;;4.32;3.15;;;;;;;19.66;56.96;100888.06;5053450;28;20056;-57
2023/04/21 07:19:49;;;;;;;6.05;3.38;;;;;;;19.66;56.69;100890.75;5053439;28;20487;-55
2023/04/21 07:22:17;;;;;;;5.28;2.78;;;;;;;19.65;56.92;100900.63;5053385;28;20063;-55
2023/04/21 07:24:44;;;;;;;7.22;3.55;;;;;;;19.66;56.83;100890.75;5053543;28;20407;-55
2023/04/21 07:27:11;;;;;;;5.55;2.92;;;;;;;19.65;57.13;100897.97;5053481;28;20056;-55
2023/04/21 07:29:39;;;;;;;3.88;3.22;;;;;;;19.66;57.04;100901.50;5053331;28;20048;-55
2023/04/21 07:32:06;;;;;;;5.05;3.30;;;;;;;19.66;56.84;100898.81;5053395;28;20045;-55
2023/04/21 07:34:33;;;;;;;4.15;3.00;;;;;;;19.65;57.06;100903.31;5053264;28;20045;-55
2023/04/21 07:37:01;;;;;;;5.82;3.65;;;;;;;19.66;56.84;100907.72;5052418;28;20053;-52
2023/04/21 07:39:28;;;;;;;4.70;3.10;;;;;;;19.67;56.89;100913.94;5052980;28;20056;-57
2023/04/21 07:41:55;;;;;;;5.35;4.18;;;;;;;19.66;57.27;100904.16;5052868;28;20075;-57
2023/04/21 07:44:23;;;;;;;4.57;3.45;;;;;;;19.67;57.25;100914.78;5053018;28;20083;-57
2023/04/21 07:46:50;;;;;;;7.82;6.30;;;;;;;19.67;57.45;100913.94;5052508;28;20048;-58
2023/04/21 07:49:17;;;;;;;8.27;5.70;;;;;;;19.66;57.53;100910.41;5052811;28;20045;-54
2023/04/21 07:51:45;;;;;;;10.00;6.95;;;;;;;19.65;57.37;100922.13;5052567;28;20045;-54
2023/04/21 07:54:12;;;;;;;7.75;6.18;;;;;;;19.65;57.19;100921.28;5052435;28;20385;-54
2023/04/21 07:56:39;;;;;;;13.10;7.43;;;;;;;19.64;57.44;100919.56;5052488;28;20394;-54
2023/04/21 07:59:07;;;;;;;9.57;8.57;;;;;;;19.63;57.37;100921.38;5053152;28;20048;-54
2023/04/21 08:01:34;;;;;;;10.88;8.25;;;;;;;19.63;57.55;100928.59;5052604;28;20052;-55
2023/04/21 08:04:01;;;;;;;10.45;8.68;;;;;;;19.62;57.39;100926.91;5051915;28;20051;-53
2023/04/21 08:06:29;;;;;;;11.18;8.07;;;;;;;19.62;57.70;100925.06;5052749;28;20057;-55
2023/04/21 08:08:56;;;;;;;12.98;8.18;;;;;;;19.61;57.92;100925.19;5052688;28;20049;-55
2023/04/21 08:11:23;;;;;;;10.30;7.40;;;;;;;19.60;57.63;100929.66;5052506;28;20049;-57
2023/04/21 08:13:51;;;;;;;11.32;8.55;;;;;;;19.61;57.73;100925.19;5053265;28;20075;-57
2023/04/21 08:16:18;;;;;;;9.95;7.25;;;;;;;19.60;57.62;100936.88;5056135;28;20525;-57
2023/04/21 08:18:46;;;;;;;11.13;8.25;;;;;;;19.59;57.68;100933.34;5055992;28;20048;-57
2023/04/21 08:21:13;;;;;;;8.40;7.05;;;;;;;19.59;57.63;100941.41;5056450;28;20052;-54
2023/04/21 08:23:41;;;;;;;9.95;7.65;;;;;;;19.60;57.54;100942.25;5056142;28;20037;-54
2023/04/21 08:26:08;;;;;;;13.25;8.57;;;;;;;19.61;57.55;100946.66;5056307;28;20120;-54
2023/04/21 08:28:35;;;;;;;12.95;9.07;;;;;;;19.60;57.59;100947.63;5056031;28;20048;-54
2023/04/21 08:31:04;;;;;;;14.75;9.27;;;;;;;19.59;57.79;100946.78;5055950;28;20075;-54
2023/04/21 08:33:31;;;;;;;10.18;8.48;;;;;;;19.59;57.85;100949.47;5055607;28;20037;-54
2023/04/21 08:35:58;;;;;;;10.48;8.73;;;;;;;19.58;57.64;100955.81;5055738;28;20051;-55
2023/04/21 08:38:43;;;;;;;10.77;8.70;;;;;;;19.58;57.79;100954.97;5055904;28;20049;-55
2023/04/21 08:41:11;;;;;;;12.73;8.75;;;;;;;19.58;57.78;100957.66;5056059;28;20060;-58
2023/04/21 08:43:39;;;;;;;8.82;6.53;;;;;;;19.59;57.83;100953.97;5055744;28;20045;-57
2023/04/21 08:46:08;;;;;;;12.32;8.35;;;;;;;19.58;57.59;100950.44;5055729;28;20494;-57
2023/04/21 08:48:37;;;;;;;10.80;7.70;;;;;;;19.58;57.66;100953.13;5056109;28;20483;-57
2023/04/21 08:51:10;;;;;;;8.90;7.13;;;;;;;19.59;57.50;100952.16;5056080;28;20053;-57
2023/04/21 08:53:40;;;;;;;7.90;7.03;;;;;;;19.60;57.48;100953.84;5055895;28;20375;-57
2023/04/21 08:56:07;;;;;;;9.75;7.35;;;;;;;19.60;57.58;100953.84;5055756;28;20485;-57
2023/04/21 08:58:38;;;;;;;9.90;8.77;;;;;;;19.61;57.67;100946.66;5055895;28;20463;-57
2023/04/21 09:01:05;;;;;;;10.65;8.93;;;;;;;19.61;57.79;100958.28;5054041;28;20422;-57
2023/04/21 09:03:32;;;;;;;11.35;9.00;;;;;;;19.60;57.91;100956.53;5055437;28;20046;-57
2023/04/21 09:06:06;;;;;;;12.07;9.20;;;;;;;19.60;57.70;100953.84;5055811;28;20049;-57
2023/04/21 09:08:41;;;;;;;10.32;7.65;;;;;;;19.60;57.56;100953.84;5053856;28;20052;-57
2023/04/21 09:11:13;;;;;;;12.93;9.05;;;;;;;19.60;57.81;100951.16;5055500;28;20061;-57
2023/04/21 09:13:42;;;;;;;11.32;9.13;;;;;;;19.59;57.64;100960.19;5055333;28;20049;-57
2023/04/21 09:16:20;;;;;;;9.02;7.80;;;;;;;19.60;57.96;100951.16;5054775;28;20503;-57
2023/04/21 09:18:50;;;;;;;9.73;8.40;;;;;;;19.59;57.69;100954.81;5055093;28;20044;-56
2023/04/21 09:21:19;;;;;;;11.10;8.85;;;;;;;19.59;57.68;100957.50;5055234;28;20056;-57
2023/04/21 09:23:51;;;;;;;9.60;8.00;;;;;;;19.59;57.60;100960.19;5054965;28;20621;-57
2023/04/21 09:26:23;;;;;;;12.55;9.27;;;;;;;19.59;57.65;100953.97;5054771;28;20045;-57
2023/04/21 09:28:52;;;;;;;8.88;7.95;;;;;;;19.60;57.44;100958.38;5054730;28;20048;-55
2023/04/21 09:31:23;;;;;;;11.25;8.50;;;;;;;19.59;57.35;100964.72;5054545;28;20071;-57
2023/04/21 09:33:55;;;;;;;13.45;9.13;;;;;;;19.58;57.32;100963.88;5054633;28;20067;-58
2023/04/21 09:36:29;;;;;;;11.23;9.25;;;;;;;19.58;57.31;100963.88;5054938;28;20056;-57
2023/04/21 09:39:00;;;;;;;10.45;8.45;;;;;;;19.58;57.26;100968.41;5055257;28;20399;-57
2023/04/21 09:41:31;;;;;;;9.15;8.23;;;;;;;19.58;57.37;100958.50;5054773;28;20041;-57
2023/04/21 09:44:03;;;;;;;11.82;9.35;;;;;;;19.59;57.37;100956.66;5054736;28;20048;-57
2023/04/21 09:46:33;;;;;;;8.95;7.43;;;;;;;19.58;57.05;100955.81;5054944;28;20044;-57
2023/04/21 09:49:02;;;;;;;9.43;7.55;;;;;;;19.58;57.14;100953.13;5054876;28;20041;-55
2023/04/21 09:51:31;;;;;;;8.38;6.68;;;;;;;19.59;57.36;100952.16;5054501;28;20063;-54
2023/04/21 09:54:20;;;;;;;11.85;8.35;;;;;;;19.59;57.36;100949.47;5055048;28;20395;-54
2023/04/21 09:57:01;;;;;;;10.27;7.60;;;;;;;19.60;57.41;100955.69;5054872;28;20056;-55
2023/04/21 09:59:34;;;;;;;10.15;8.30;;;;;;;19.60;57.45;100950.31;5054575;28;20053;-54
2023/04/21 10:02:06;;;;;;;9.82;7.65;;;;;;;19.59;57.32;100952.16;5054587;28;20040;-54
2023/04/21 10:04:36;;;;;;;9.60;8.25;;;;;;;19.59;57.27;100946.78;5054440;28;20049;-54
2023/04/21 10:07:05;;;;;;;8.88;7.97;;;;;;;19.59;57.06;100945.94;5054646;28;20044;-55
2023/04/21 10:09:39;;;;;;;8.07;7.18;;;;;;;19.59;57.22;100944.09;5053072;28;20076;-55
2023/04/21 10:12:08;;;;;;;9.02;8.05;;;;;;;19.60;57.17;100942.25;5054426;28;20398;-54
2023/04/21 10:14:36;;;;;;;9.38;8.07;;;;;;;19.59;57.24;100932.50;5054263;28;20045;-54
2023/04/21 10:17:05;;;;;;;10.90;8.32;;;;;;;19.59;57.20;100944.09;5053036;28;20491;-54
2023/04/21 10:19:38;;;;;;;10.90;8.00;;;;;;;19.59;57.24;100930.66;5054125;28;20048;-57
2023/04/21 10:22:09;;;;;;;10.05;6.85;;;;;;;19.60;57.24;100934.19;5054549;28;20053;-57
2023/04/21 10:24:41;;;;;;;10.00;7.38;;;;;;;19.59;57.31;100944.09;5054145;28;20048;-57
2023/04/21 10:27:11;;;;;;;9.85;7.85;;;;;;;19.60;57.20;100931.50;5053932;28;20502;-57
2023/04/21 10:29:38;;;;;;;9.80;7.97;;;;;;;19.59;56.95;100938.72;5053994;28;20052;-54
2023/04/21 10:32:41;;;;;;;9.18;7.93;;;;;;;19.59;56.85;100929.81;5053850;28;20045;-53
2023/04/21 10:35:14;;;;;;;8.95;7.85;;;;;;;19.59;56.86;100933.34;5046487;28;20048;-54
2023/04/21 10:37:42;;;;;;;10.40;8.90;;;;;;;19.59;56.77;100936.03;5052925;28;20045;-53
2023/04/21 10:40:38;;;;;;;9.55;8.55;;;;;;;19.59;56.70;100933.34;5053332;28;20048;-55
2023/04/21 10:43:44;;;;;;;10.40;7.57;;;;;;;19.60;56.56;100936.88;5053045;28;20072;-54
2023/04/21 10:46:31;;;;;;;8.20;6.93;;;;;;;19.60;56.49;100939.56;5052850;28;20044;-54
2023/04/21 10:49:04;;;;;;;10.18;8.07;;;;;;;19.59;56.14;100930.66;5053148;28;20049;-54
2023/04/21 10:51:32;;;;;;;10.70;6.72;;;;;;;19.60;56.32;100932.34;5052347;28;20045;-55
2023/04/21 10:54:03;;;;;;;7.47;5.95;;;;;;;19.60;56.63;100935.03;5053772;28;20455;-54
2023/04/21 10:56:31;;;;;;;9.10;5.75;;;;;;;19.61;56.54;100923.38;5053033;28;20050;-54
2023/04/21 10:59:00;;;;;;;6.03;5.43;;;;;;;19.61;56.43;100936.81;5053159;28;20063;-57
2023/04/21 11:01:27;;;;;;;6.30;5.68;;;;;;;19.62;56.50;100935.81;5043800;28;20483;-57
2023/04/21 11:03:57;;;;;;;6.32;5.47;;;;;;;19.63;56.29;100925.91;5032274;28;20037;-57
2023/04/21 11:06:26;;;;;;;6.90;5.35;;;;;;;19.64;56.30;100930.28;5031970;28;20060;-57
2023/04/21 11:08:57;;;;;;;6.45;5.40;;;;;;;19.65;56.36;100929.34;5032847;28;20487;-56
2023/04/21 11:11:25;;;;;;;6.95;5.55;;;;;;;19.64;56.33;100925.78;5049382;28;20494;-55
2023/04/21 11:13:53;;;;;;;6.35;5.65;;;;;;;19.66;56.24;100922.97;5051605;28;20052;-53
2023/04/21 11:16:21;;;;;;;5.70;5.10;;;;;;;19.66;56.20;100918.44;5053298;28;20045;-55
2023/04/21 11:18:48;;;;;;;6.95;5.43;;;;;;;19.67;56.28;100920.16;5052647;28;20060;-56
2023/04/21 11:21:18;;;;;;;8.13;5.72;;;;;;;19.67;56.39;100930.03;5052554;28;20056;-55
2023/04/21 11:23:54;;;;;;;6.25;4.97;;;;;;;19.68;56.10;100921.84;5051642;28;20041;-55
2023/04/21 11:26:34;;;;;;;7.38;5.28;;;;;;;19.69;56.05;100920.03;5052429;28;20120;-55
2023/04/21 11:29:05;;;;;;;8.43;5.00;;;;;;;19.70;56.04;100921.72;5052943;28;20060;-56
2023/04/21 11:31:33;;;;;;;6.20;5.60;;;;;;;19.69;56.13;100911.97;5053211;28;20045;-55